Nerlerit Inaat

KL  EN  DA
ASIAQ
Weather Now GREENLAND SURVEY
Updated [WGT/WGST] Temperature [°C] Wind [m/s] Air pressure [hPa] Relative humidity [%] Precipitation [mm]
Present Wind chill Speed Max
21.01 21:00-4,7-9,23,1 ⇒7,796341n/a
21.01 20:00-3,3-7,93,5 ⇘7,196340n/a
21.01 19:00-4,0-7,82,5 ⇙4,096452n/a
21.01 18:00-1,6-9,210,0 ⇑13,496444n/a
21.01 17:00-0,1-7,711,7 ⇑15,396440n/a
21.01 16:00-0,5-8,312,0 ⇑18,096543n/a
21.01 15:00-0,4-7,49,5 ⇑15,996545n/a
21.01 14:00-3,8-11,89,4 ⇑13,996766n/a
21.01 13:00-4,7-11,86,7 ⇑12,396856n/a
21.01 12:00-9,1-18,58,8 ⇑11,996968n/a
21.01 11:00-9,4-20,211,8 ⇑14,897174n/a
21.01 10:00-9,2-18,89,1 ⇑11,197280n/a
21.01 09:00-5,1-14,010,7 ⇑14,397282n/a
21.01 08:00-13,9-18,31,8 ⇖2,697480n/a
21.01 07:00-14,8-20,42,4 ⇓4,797776n/a
21.01 06:00-14,5-18,01,4 ⇗2,597975n/a
21.01 05:00-13,7-20,83,7 ⇓4,898171n/a
21.01 04:00-13,9-20,73,4 ⇙6,898264n/a
21.01 03:00-13,1-19,02,8 ⇙5,798463n/a
21.01 02:00-13,6-18,82,3 ⇘4,498761n/a
21.01 01:00-14,40,00,7 ⇓1,598964n/a
21.01 00:00-14,2-18,41,7 ⇓2,199261n/a
20.01 23:00-15,60,00,6 ⇙1,999576n/a
20.01 22:00-14,9-18,51,4 ⇒1,899771n/a
20.01 21:00-14,60,00,0 ⇓0,099966n/a
Position: (70.75,-22.65)

[Back]